Time;durP1;ratioP1;P1;durP2;ratioP2;P2;SDS_P1;SDS_P2;PMS_P1;PMS_P2;Temp;Humidity;BMP_temperature;BMP_pressure;BME280_temperature;BME280_humidity;BME280_pressure;Samples;Min_cycle;Max_cycle;Signal;HPM_P1;HPM_P2
2021/07/30 00:01:35;;;;;;;;;;;17.60;99.90;;;;;;5093536;28;19991;-79
2021/07/30 00:04:01;;;;;;;;;;;17.50;99.90;;;;;;5093902;28;19949;-77
2021/07/30 00:06:26;;;;;;;;;;;17.50;99.90;;;;;;5093803;28;19908;-77
2021/07/30 00:08:52;;;;;;;;;;;17.40;99.90;;;;;;5093469;28;20279;-78
2021/07/30 00:11:18;;;;;;;;;;;17.40;99.90;;;;;;5093237;28;19904;-78
2021/07/30 00:13:43;;;;;;;;;;;17.30;99.90;;;;;;5093623;28;19911;-77
2021/07/30 00:16:09;;;;;;;;;;;17.20;99.90;;;;;;5092940;28;20325;-79
2021/07/30 00:18:35;;;;;;;;;;;17.10;99.90;;;;;;5093380;28;19904;-78
2021/07/30 00:21:00;;;;;;;;;;;17.30;99.90;;;;;;5093383;28;20390;-78
2021/07/30 00:23:26;;;;;;;;;;;17.30;99.90;;;;;;5093195;28;19927;-75
2021/07/30 00:25:51;;;;;;;;;;;17.20;99.90;;;;;;5075115;28;19904;-77
2021/07/30 00:28:17;;;;;;;;;;;17.20;99.90;;;;;;5093298;28;19915;-78
2021/07/30 00:30:42;;;;;;;;;;;17.20;99.90;;;;;;5093271;28;19926;-77
2021/07/30 00:33:08;;;;;;;;;;;17.30;99.90;;;;;;5074939;28;19999;-78
2021/07/30 00:35:34;;;;;;;;;;;17.20;99.90;;;;;;5093134;28;20279;-79
2021/07/30 00:37:59;;;;;;;;;;;17.20;99.90;;;;;;5094644;28;19977;-78
2021/07/30 00:40:25;;;;;;;;;;;17.10;99.90;;;;;;5097226;28;20451;-78
2021/07/30 00:42:53;;;;;;;;;;;17.20;99.90;;;;;;5096872;28;19904;-77
2021/07/30 00:45:19;;;;;;;;;;;17.30;99.90;;;;;;5096914;28;20291;-77
2021/07/30 00:47:45;;;;;;;;;;;17.20;99.90;;;;;;5096833;28;19904;-79
2021/07/30 00:50:11;;;;;;;;;;;17.30;99.90;;;;;;5097229;28;19904;-79
2021/07/30 00:52:37;;;;;;;;;;;17.30;99.90;;;;;;5096780;28;19923;-77
2021/07/30 00:55:02;;;;;;;;;;;17.30;99.90;;;;;;5078380;28;19986;-77
2021/07/30 00:57:28;;;;;;;;;;;17.40;99.90;;;;;;5096766;28;19904;-78
2021/07/30 00:59:54;;;;;;;;;;;17.40;99.90;;;;;;5096538;28;19911;-78
2021/07/30 01:02:20;;;;;;;;;;;17.40;99.90;;;;;;5096193;28;19993;-77
2021/07/30 01:04:46;;;;;;;;;;;17.50;99.90;;;;;;5096167;28;20261;-78
2021/07/30 01:07:12;;;;;;;;;;;17.50;99.90;;;;;;5096396;28;19949;-77
2021/07/30 01:09:37;;;;;;;;;;;17.60;99.90;;;;;;5096397;28;19912;-77
2021/07/30 01:12:03;;;;;;;;;;;17.60;99.90;;;;;;5096267;28;19951;-78
2021/07/30 01:14:29;;;;;;;;;;;17.50;99.90;;;;;;5096010;28;19904;-78
2021/07/30 01:16:54;;;;;;;;;;;17.60;99.90;;;;;;5096568;28;19908;-77
2021/07/30 01:19:21;;;;;;;;;;;17.60;99.90;;;;;;5077869;28;19990;-78
2021/07/30 01:21:48;;;;;;;;;;;17.60;99.90;;;;;;5096087;28;19930;-78
2021/07/30 01:24:13;;;;;;;;;;;17.60;99.90;;;;;;5095976;28;19904;-77
2021/07/30 01:26:39;;;;;;;;;;;17.70;99.90;;;;;;5096024;28;20296;-78
2021/07/30 01:29:05;;;;;;;;;;;17.70;99.90;;;;;;5096025;28;19951;-76
2021/07/30 01:31:30;;;;;;;;;;;17.60;99.90;;;;;;5077804;28;19955;-78
2021/07/30 01:33:56;;;;;;;;;;;17.70;99.90;;;;;;5095931;28;19904;-78
2021/07/30 01:36:21;;;;;;;;;;;17.60;99.90;;;;;;5095945;28;19957;-78
2021/07/30 01:38:47;;;;;;;;;;;17.70;99.90;;;;;;5095816;28;20371;-78
2021/07/30 01:41:15;;;;;;;;;;;17.70;99.90;;;;;;5095781;28;19911;-77
2021/07/30 01:43:41;;;;;;;;;;;17.70;99.90;;;;;;5095839;28;19904;-77
2021/07/30 01:46:07;;;;;;;;;;;17.60;99.90;;;;;;5095698;28;20364;-77
2021/07/30 01:48:32;;;;;;;;;;;17.50;99.90;;;;;;5095500;28;19910;-78
2021/07/30 01:50:58;;;;;;;;;;;17.60;99.90;;;;;;5094955;28;20276;-77
2021/07/30 01:53:23;;;;;;;;;;;17.50;99.90;;;;;;5095483;28;19908;-77
2021/07/30 01:55:49;;;;;;;;;;;17.60;99.90;;;;;;5095687;28;19935;-78
2021/07/30 01:58:15;;;;;;;;;;;17.50;99.90;;;;;;5095462;28;20015;-77
2021/07/30 02:00:40;;;;;;;;;;;17.50;99.90;;;;;;5095822;28;19904;-77
2021/07/30 02:03:06;;;;;;;;;;;17.50;99.90;;;;;;5095343;28;19904;-77
2021/07/30 02:05:31;;;;;;;;;;;17.50;99.90;;;;;;5095472;28;19904;-78
2021/07/30 02:07:57;;;;;;;;;;;17.60;99.90;;;;;;5095269;28;19909;-78
2021/07/30 02:10:22;;;;;;;;;;;17.60;99.90;;;;;;5076990;28;19998;-77
2021/07/30 02:15:32;;;;;;;;;;;17.60;99.90;;;;;;5094765;28;20011;-77
2021/07/30 02:17:58;;;;;;;;;;;17.70;99.90;;;;;;5095123;28;19953;-78
2021/07/30 02:20:23;;;;;;;;;;;17.70;99.90;;;;;;5095467;28;20378;-77
2021/07/30 02:22:49;;;;;;;;;;;17.60;99.90;;;;;;5094944;28;19904;-77
2021/07/30 02:25:14;;;;;;;;;;;17.60;99.90;;;;;;5094935;28;20332;-77
2021/07/30 02:27:40;;;;;;;;;;;17.70;99.90;;;;;;5094903;28;19986;-78
2021/07/30 02:30:06;;;;;;;;;;;17.70;99.90;;;;;;5094817;28;19908;-78
2021/07/30 02:32:31;;;;;;;;;;;17.60;99.90;;;;;;5094739;28;19930;-76
2021/07/30 02:34:57;;;;;;;;;;;17.60;99.90;;;;;;5094654;28;19908;-77
2021/07/30 02:37:22;;;;;;;;;;;17.50;99.90;;;;;;5094843;28;19995;-78
2021/07/30 02:39:48;;;;;;;;;;;17.30;99.90;;;;;;5076469;28;19949;-76
2021/07/30 02:42:14;;;;;;;;;;;17.30;99.90;;;;;;5094709;28;19947;-78
2021/07/30 02:44:39;;;;;;;;;;;17.30;99.90;;;;;;5094582;28;19911;-77
2021/07/30 02:47:05;;;;;;;;;;;17.20;99.90;;;;;;5094707;28;19904;-77
2021/07/30 02:49:30;;;;;;;;;;;17.30;99.90;;;;;;5094632;28;19904;-77
2021/07/30 02:51:56;;;;;;;;;;;17.30;99.90;;;;;;5094445;28;20041;-78
2021/07/30 02:54:21;;;;;;;;;;;17.30;99.90;;;;;;5094431;28;19927;-77
2021/07/30 02:56:47;;;;;;;;;;;17.30;99.90;;;;;;5094360;28;19961;-77
2021/07/30 02:59:13;;;;;;;;;;;17.30;99.90;;;;;;5094383;28;19904;-78
2021/07/30 03:01:38;;;;;;;;;;;17.20;99.90;;;;;;5076393;28;19911;-78
2021/07/30 03:04:04;;;;;;;;;;;17.20;99.90;;;;;;5094278;28;19908;-77
2021/07/30 03:06:29;;;;;;;;;;;17.20;99.90;;;;;;5094471;28;19999;-76
2021/07/30 03:08:55;;;;;;;;;;;17.20;99.90;;;;;;5094189;28;20368;-78
2021/07/30 03:11:21;;;;;;;;;;;17.10;99.90;;;;;;5094145;28;19953;-78
2021/07/30 03:13:47;;;;;;;;;;;17.00;99.90;;;;;;5094119;28;19908;-78
2021/07/30 03:16:13;;;;;;;;;;;17.10;99.90;;;;;;5093866;28;19993;-79
2021/07/30 03:18:39;;;;;;;;;;;16.80;99.90;;;;;;5094398;28;20330;-78
2021/07/30 03:21:05;;;;;;;;;;;16.60;99.90;;;;;;5094065;28;20389;-78
2021/07/30 03:23:30;;;;;;;;;;;16.50;99.90;;;;;;5093976;28;20002;-77
2021/07/30 03:25:56;;;;;;;;;;;16.40;99.90;;;;;;5094045;28;19942;-77
2021/07/30 03:28:22;;;;;;;;;;;16.40;99.90;;;;;;5093972;28;19908;-78
2021/07/30 03:30:48;;;;;;;;;;;16.10;99.90;;;;;;5094151;28;19915;-78
2021/07/30 03:33:14;;;;;;;;;;;15.90;99.90;;;;;;5093761;28;19908;-78
2021/07/30 03:35:40;;;;;;;;;;;15.80;99.90;;;;;;5093858;28;19911;-77
2021/07/30 03:38:06;;;;;;;;;;;15.80;99.90;;;;;;5093834;28;19954;-77
2021/07/30 03:40:32;;;;;;;;;;;15.70;99.90;;;;;;5075554;28;20324;-78
2021/07/30 03:42:58;;;;;;;;;;;15.60;99.90;;;;;;5075602;28;19911;-78
2021/07/30 03:45:24;;;;;;;;;;;15.50;99.90;;;;;;5093705;28;19999;-78
2021/07/30 03:47:50;;;;;;;;;;;15.50;99.90;;;;;;5093655;28;19904;-78
2021/07/30 03:50:16;;;;;;;;;;;15.40;99.90;;;;;;5093650;28;19908;-77
2021/07/30 03:52:41;;;;;;;;;;;15.30;99.90;;;;;;5093595;28;19915;-79
2021/07/30 03:55:07;;;;;;;;;;;15.30;99.90;;;;;;5093633;28;19939;-78
2021/07/30 03:57:33;;;;;;;;;;;15.20;99.90;;;;;;5093572;28;19957;-77
2021/07/30 03:59:58;;;;;;;;;;;15.20;99.90;;;;;;5093615;28;20416;-77
2021/07/30 04:02:24;;;;;;;;;;;15.20;99.90;;;;;;5093550;28;20292;-78
2021/07/30 04:04:50;;;;;;;;;;;15.20;99.90;;;;;;5093739;28;19991;-79
2021/07/30 04:07:15;;;;;;;;;;;15.10;99.90;;;;;;5093687;28;19904;-77
2021/07/30 04:09:41;;;;;;;;;;;15.00;99.90;;;;;;5093499;28;20386;-78
2021/07/30 04:12:06;;;;;;;;;;;14.80;99.90;;;;;;5093713;28;19908;-76
2021/07/30 04:14:32;;;;;;;;;;;14.80;99.90;;;;;;5097294;28;19903;-78
2021/07/30 04:16:58;;;;;;;;;;;14.80;99.90;;;;;;5097765;28;19904;-78
2021/07/30 04:19:23;;;;;;;;;;;14.80;99.90;;;;;;5097407;28;20367;-78
2021/07/30 04:21:51;;;;;;;;;;;14.70;99.90;;;;;;5097367;28;19922;-78
2021/07/30 04:24:16;;;;;;;;;;;14.60;99.90;;;;;;5097239;28;19908;-78
2021/07/30 04:26:42;;;;;;;;;;;14.60;99.90;;;;;;5097513;28;19993;-78
2021/07/30 04:29:07;;;;;;;;;;;14.50;99.90;;;;;;5097754;28;19934;-77
2021/07/30 04:31:37;;;;;;;;;;;14.50;99.90;;;;;;5097049;28;19904;-77
2021/07/30 04:34:02;;;;;;;;;;;14.40;99.90;;;;;;5097165;28;19904;-78
2021/07/30 04:36:28;;;;;;;;;;;14.30;99.90;;;;;;5078908;28;19911;-76
2021/07/30 04:38:54;;;;;;;;;;;14.30;99.90;;;;;;5097237;28;19904;-77
2021/07/30 04:41:19;;;;;;;;;;;14.30;99.90;;;;;;5097093;28;19904;-76
2021/07/30 04:43:45;;;;;;;;;;;14.20;99.90;;;;;;5097017;28;20013;-78
2021/07/30 04:46:17;;;;;;;;;;;14.20;99.90;;;;;;5096972;28;20372;-78
2021/07/30 04:48:43;;;;;;;;;;;14.20;99.90;;;;;;5097051;28;19904;-78
2021/07/30 04:51:09;;;;;;;;;;;14.10;99.90;;;;;;5096849;28;19911;-78
2021/07/30 04:53:34;;;;;;;;;;;14.20;99.90;;;;;;5096907;28;19959;-75
2021/07/30 04:56:00;;;;;;;;;;;14.10;99.90;;;;;;5096734;28;19904;-78
2021/07/30 04:58:25;;;;;;;;;;;14.00;99.90;;;;;;5096930;28;19994;-78
2021/07/30 05:00:51;;;;;;;;;;;14.00;99.90;;;;;;5096761;28;19904;-79
2021/07/30 05:03:17;;;;;;;;;;;13.90;99.90;;;;;;5096550;28;19965;-77
2021/07/30 05:05:42;;;;;;;;;;;13.90;99.90;;;;;;5096515;28;19904;-77
2021/07/30 05:08:08;;;;;;;;;;;14.00;99.90;;;;;;5096498;28;19904;-77
2021/07/30 05:10:33;;;;;;;;;;;13.90;99.90;;;;;;5096754;28;19904;-77
2021/07/30 05:12:59;;;;;;;;;;;14.00;99.90;;;;;;5096542;28;20432;-77
2021/07/30 05:15:25;;;;;;;;;;;14.00;99.90;;;;;;5096208;28;20466;-78
2021/07/30 05:17:51;;;;;;;;;;;14.00;99.90;;;;;;5096243;28;19943;-77
2021/07/30 05:20:16;;;;;;;;;;;14.10;99.90;;;;;;5096220;28;19911;-77
2021/07/30 05:22:42;;;;;;;;;;;14.10;99.90;;;;;;5096257;28;19911;-77
2021/07/30 05:25:11;;;;;;;;;;;14.10;99.90;;;;;;5095001;28;19908;-77
2021/07/30 05:27:37;;;;;;;;;;;14.20;99.90;;;;;;5078002;28;19949;-77
2021/07/30 05:30:02;;;;;;;;;;;14.30;99.90;;;;;;5096115;28;20326;-78
2021/07/30 05:32:28;;;;;;;;;;;14.30;99.90;;;;;;5095997;28;19908;-78
2021/07/30 05:34:54;;;;;;;;;;;14.40;99.90;;;;;;5096039;28;19926;-77
2021/07/30 05:37:19;;;;;;;;;;;14.50;99.90;;;;;;5095903;28;19904;-77
2021/07/30 05:39:45;;;;;;;;;;;14.50;99.90;;;;;;5096027;28;19904;-78
2021/07/30 05:42:10;;;;;;;;;;;14.50;99.90;;;;;;5095866;28;19954;-78
2021/07/30 05:44:36;;;;;;;;;;;14.50;99.90;;;;;;5077661;28;19910;-77
2021/07/30 05:47:03;;;;;;;;;;;14.70;99.90;;;;;;5095742;28;20321;-77
2021/07/30 05:49:29;;;;;;;;;;;14.80;99.90;;;;;;5096110;28;19958;-78
2021/07/30 05:51:54;;;;;;;;;;;14.90;99.90;;;;;;5095889;28;20356;-78
2021/07/30 05:54:20;;;;;;;;;;;14.90;99.90;;;;;;5095561;28;19904;-78
2021/07/30 05:56:45;;;;;;;;;;;14.80;99.90;;;;;;5095623;28;19904;-78
2021/07/30 05:59:11;;;;;;;;;;;14.90;99.90;;;;;;5095569;28;20368;-77
2021/07/30 06:01:37;;;;;;;;;;;14.90;99.90;;;;;;5095509;28;20020;-76
2021/07/30 06:04:02;;;;;;;;;;;14.80;99.90;;;;;;5095407;28;20036;-77
2021/07/30 06:06:28;;;;;;;;;;;14.80;99.90;;;;;;5095540;28;19982;-77
2021/07/30 06:08:54;;;;;;;;;;;14.90;99.90;;;;;;5077096;28;19954;-78
2021/07/30 06:11:19;;;;;;;;;;;14.90;99.90;;;;;;5077069;28;19908;-77
2021/07/30 06:13:45;;;;;;;;;;;15.00;99.90;;;;;;5095479;28;20007;-78
2021/07/30 06:16:11;;;;;;;;;;;15.00;99.90;;;;;;5094822;28;20380;-77
2021/07/30 06:18:38;;;;;;;;;;;14.90;99.90;;;;;;5095106;28;20433;-78
2021/07/30 06:21:05;;;;;;;;;;;15.00;99.90;;;;;;5095122;28;19954;-76
2021/07/30 06:23:30;;;;;;;;;;;15.10;99.90;;;;;;5095333;28;19904;-78
2021/07/30 06:25:56;;;;;;;;;;;15.00;99.90;;;;;;5076862;28;19911;-77
2021/07/30 06:28:21;;;;;;;;;;;15.10;99.90;;;;;;5094943;28;20418;-76
2021/07/30 06:30:47;;;;;;;;;;;15.10;99.90;;;;;;5094927;28;19907;-77
2021/07/30 06:33:12;;;;;;;;;;;15.00;99.90;;;;;;5094729;28;19908;-78
2021/07/30 06:35:38;;;;;;;;;;;15.10;99.90;;;;;;5094499;28;19904;-78
2021/07/30 06:38:04;;;;;;;;;;;15.10;99.90;;;;;;5094482;28;20360;-77
2021/07/30 06:40:29;;;;;;;;;;;15.20;99.90;;;;;;5094837;28;19908;-77
2021/07/30 06:42:57;;;;;;;;;;;15.30;99.90;;;;;;5094662;28;19928;-78
2021/07/30 06:45:23;;;;;;;;;;;15.30;99.90;;;;;;5094592;28;19904;-77
2021/07/30 06:47:48;;;;;;;;;;;15.40;99.90;;;;;;5076329;28;19904;-78
2021/07/30 06:50:14;;;;;;;;;;;15.40;99.90;;;;;;5094712;28;19911;-77
2021/07/30 06:52:40;;;;;;;;;;;15.50;99.90;;;;;;5094342;28;20283;-78
2021/07/30 06:55:06;;;;;;;;;;;15.60;99.90;;;;;;5094433;28;19947;-77
2021/07/30 06:57:31;;;;;;;;;;;15.80;99.90;;;;;;5076210;28;19950;-77
2021/07/30 06:59:58;;;;;;;;;;;15.80;99.90;;;;;;5094358;28;19911;-78
2021/07/30 07:02:23;;;;;;;;;;;15.70;99.90;;;;;;5075999;28;19911;-78
2021/07/30 07:04:49;;;;;;;;;;;15.60;99.90;;;;;;5094241;28;19904;-77
2021/07/30 07:07:15;;;;;;;;;;;15.70;99.90;;;;;;5094132;28;20288;-77
2021/07/30 07:09:40;;;;;;;;;;;15.80;99.90;;;;;;5094045;28;19904;-77
2021/07/30 07:12:06;;;;;;;;;;;15.70;99.90;;;;;;5094306;28;19912;-77
2021/07/30 07:14:32;;;;;;;;;;;15.90;99.90;;;;;;5093810;28;20352;-78
2021/07/30 07:16:57;;;;;;;;;;;16.00;99.90;;;;;;5094208;28;19941;-77
2021/07/30 07:19:23;;;;;;;;;;;16.10;99.90;;;;;;5093992;28;20322;-77
2021/07/30 07:21:50;;;;;;;;;;;16.30;99.90;;;;;;5093964;28;19931;-78
2021/07/30 07:24:16;;;;;;;;;;;16.70;99.90;;;;;;5093741;28;19929;-77
2021/07/30 07:26:42;;;;;;;;;;;17.30;99.90;;;;;;5093817;28;19904;-78
2021/07/30 07:29:08;;;;;;;;;;;18.20;99.90;;;;;;5075574;28;19969;-78
2021/07/30 07:31:34;;;;;;;;;;;18.40;99.90;;;;;;5093968;28;19911;-77
2021/07/30 07:33:59;;;;;;;;;;;18.80;99.90;;;;;;5093757;28;19904;-78
2021/07/30 07:36:25;;;;;;;;;;;19.20;99.90;;;;;;5094013;28;20268;-78
2021/07/30 07:38:51;;;;;;;;;;;20.10;99.90;;;;;;5075613;28;19904;-77
2021/07/30 07:41:17;;;;;;;;;;;19.90;99.90;;;;;;5093710;28;19951;-77
2021/07/30 07:43:43;;;;;;;;;;;19.60;99.90;;;;;;5093742;28;19904;-78
2021/07/30 07:46:09;;;;;;;;;;;19.20;99.90;;;;;;5093641;28;20029;-78
2021/07/30 07:48:35;;;;;;;;;;;19.80;99.90;;;;;;5092919;28;19904;-78
2021/07/30 07:51:01;;;;;;;;;;;19.60;99.90;;;;;;5093605;28;19904;-78
2021/07/30 07:53:27;;;;;;;;;;;20.10;99.90;;;;;;5075442;28;19908;-79
2021/07/30 07:56:02;;;;;;;;;;;19.80;99.90;;;;;;5093566;28;19904;-78
2021/07/30 07:58:29;;;;;;;;;;;19.30;99.90;;;;;;5093614;28;20023;-78
2021/07/30 08:00:54;;;;;;;;;;;19.90;99.90;;;;;;5093542;28;19904;-78
2021/07/30 08:03:20;;;;;;;;;;;19.50;99.90;;;;;;5075450;28;19919;-76
2021/07/30 08:05:46;;;;;;;;;;;19.50;99.90;;;;;;5093815;28;19904;-77
2021/07/30 08:08:11;;;;;;;;;;;19.10;99.90;;;;;;5093536;28;20275;-78
2021/07/30 08:10:37;;;;;;;;;;;19.70;99.90;;;;;;5093479;28;19904;-77
2021/07/30 08:13:02;;;;;;;;;;;19.10;99.90;;;;;;5093339;28;19990;-77
2021/07/30 08:15:28;;;;;;;;;;;19.00;99.90;;;;;;5092777;28;19923;-77
2021/07/30 08:17:54;;;;;;;;;;;18.90;99.90;;;;;;5093662;28;19911;-79
2021/07/30 08:20:19;;;;;;;;;;;19.20;99.90;;;;;;5093348;28;19912;-77
2021/07/30 08:22:45;;;;;;;;;;;19.40;99.90;;;;;;5093455;28;19904;-78
2021/07/30 08:25:13;;;;;;;;;;;19.10;99.90;;;;;;5093291;28;19904;-78
2021/07/30 08:27:39;;;;;;;;;;;18.90;99.90;;;;;;5093258;28;20362;-77
2021/07/30 08:30:05;;;;;;;;;;;18.90;99.90;;;;;;5093230;28;19988;-78
2021/07/30 08:32:32;;;;;;;;;;;19.40;99.90;;;;;;5093104;28;20273;-78
2021/07/30 08:34:58;;;;;;;;;;;19.10;99.90;;;;;;5093280;28;19919;-77
2021/07/30 08:37:23;;;;;;;;;;;18.70;99.90;;;;;;5093211;28;19904;-78
2021/07/30 08:39:49;;;;;;;;;;;19.40;99.90;;;;;;5093369;28;20383;-78
2021/07/30 08:42:15;;;;;;;;;;;20.10;99.90;;;;;;5093177;28;19910;-78
2021/07/30 08:44:41;;;;;;;;;;;20.30;99.90;;;;;;5074998;28;19911;-78
2021/07/30 08:47:08;;;;;;;;;;;20.60;98.80;;;;;;5093137;28;19904;-78
2021/07/30 08:49:35;;;;;;;;;;;20.50;98.60;;;;;;5093002;28;19911;-79
2021/07/30 08:52:06;;;;;;;;;;;20.90;99.90;;;;;;5092997;28;19908;-78
2021/07/30 08:54:32;;;;;;;;;;;21.50;98.50;;;;;;5093162;28;19904;-80
2021/07/30 08:56:57;;;;;;;;;;;21.70;96.70;;;;;;5093084;28;19914;-79
2021/07/30 08:59:23;;;;;;;;;;;21.30;97.80;;;;;;5095204;28;19954;-82
2021/07/30 09:01:54;;;;;;;;;;;21.00;99.00;;;;;;5096605;28;19953;-81
2021/07/30 09:04:29;;;;;;;;;;;21.10;97.90;;;;;;5096649;28;19904;-81
2021/07/30 09:06:55;;;;;;;;;;;22.10;97.80;;;;;;5096967;28;19927;-82
2021/07/30 09:09:21;;;;;;;;;;;23.20;94.40;;;;;;5096505;28;20257;-81
2021/07/30 09:11:53;;;;;;;;;;;22.60;94.30;;;;;;5096475;28;19911;-81
2021/07/30 09:14:31;;;;;;;;;;;22.70;93.90;;;;;;5096439;28;20280;-82
2021/07/30 09:16:56;;;;;;;;;;;21.40;95.50;;;;;;5096341;28;19900;-81
2021/07/30 09:19:23;;;;;;;;;;;20.30;99.90;;;;;;5096276;28;19904;-81
2021/07/30 09:22:00;;;;;;;;;;;19.70;99.90;;;;;;5096270;28;19908;-81
2021/07/30 09:24:31;;;;;;;;;;;20.30;99.90;;;;;;5096234;28;19904;-81
2021/07/30 09:26:59;;;;;;;;;;;21.00;99.40;;;;;;5096220;28;19905;-81
2021/07/30 09:29:29;;;;;;;;;;;20.40;99.10;;;;;;5096287;28;19907;-80
2021/07/30 09:31:59;;;;;;;;;;;20.00;99.90;;;;;;5095988;28;20007;-81
2021/07/30 09:34:26;;;;;;;;;;;19.90;99.90;;;;;;5096037;28;20010;-81
2021/07/30 09:36:52;;;;;;;;;;;20.20;99.90;;;;;;5095832;28;19947;-81
2021/07/30 09:39:19;;;;;;;;;;;20.00;99.90;;;;;;5096258;28;19915;-80
2021/07/30 09:42:03;;;;;;;;;;;19.90;99.90;;;;;;5096022;28;19904;-81
2021/07/30 09:44:29;;;;;;;;;;;20.40;99.90;;;;;;5095872;28;20275;-81
2021/07/30 09:47:01;;;;;;;;;;;20.20;99.90;;;;;;5095996;28;20356;-81
2021/07/30 09:49:45;;;;;;;;;;;19.90;99.90;;;;;;5096000;28;19904;-81
2021/07/30 09:52:12;;;;;;;;;;;19.50;99.90;;;;;;5095602;28;19908;-81
2021/07/30 09:54:42;;;;;;;;;;;19.60;99.90;;;;;;5095598;28;19962;-81
2021/07/30 09:57:08;;;;;;;;;;;20.10;99.90;;;;;;5095718;28;19908;-81
2021/07/30 09:59:36;;;;;;;;;;;20.30;99.90;;;;;;5095618;28;20245;-81
2021/07/30 10:02:05;;;;;;;;;;;21.30;99.90;;;;;;5095643;28;19904;-81
2021/07/30 10:04:32;;;;;;;;;;;21.00;99.90;;;;;;5095414;28;19956;-81
2021/07/30 10:07:00;;;;;;;;;;;20.80;99.90;;;;;;5095592;28;19988;-81
2021/07/30 10:09:26;;;;;;;;;;;22.30;98.70;;;;;;5095179;28;20379;-81
2021/07/30 10:11:52;;;;;;;;;;;22.10;98.00;;;;;;5094534;28;19908;-81
2021/07/30 10:14:18;;;;;;;;;;;21.50;99.00;;;;;;5094989;28;19912;-81
2021/07/30 10:16:49;;;;;;;;;;;22.20;98.50;;;;;;5095141;28;19912;-81
2021/07/30 10:19:16;;;;;;;;;;;21.70;98.10;;;;;;5095143;28;20006;-81
2021/07/30 10:21:41;;;;;;;;;;;21.80;97.90;;;;;;5095206;28;19904;-80
2021/07/30 10:24:08;;;;;;;;;;;22.20;96.90;;;;;;5094962;28;19911;-81
2021/07/30 10:26:34;;;;;;;;;;;22.70;95.30;;;;;;5095026;28;20314;-81
2021/07/30 10:29:01;;;;;;;;;;;22.70;94.80;;;;;;5094866;28;19919;-81
2021/07/30 10:31:45;;;;;;;;;;;23.00;94.30;;;;;;5095158;28;19983;-80
2021/07/30 10:34:10;;;;;;;;;;;21.90;94.80;;;;;;5094836;28;19908;-81
2021/07/30 10:36:37;;;;;;;;;;;21.10;96.90;;;;;;5094781;28;19908;-81
2021/07/30 10:39:15;;;;;;;;;;;21.10;98.10;;;;;;5076535;28;19938;-80
2021/07/30 10:41:59;;;;;;;;;;;21.30;97.80;;;;;;5094688;28;19991;-81
2021/07/30 10:44:25;;;;;;;;;;;21.00;97.60;;;;;;5094662;28;20372;-81
2021/07/30 10:47:11;;;;;;;;;;;21.40;96.80;;;;;;5094916;28;19998;-82
2021/07/30 10:49:37;;;;;;;;;;;22.10;95.50;;;;;;5094626;28;19998;-81
2021/07/30 10:52:21;;;;;;;;;;;24.40;90.90;;;;;;5094460;28;19908;-82
2021/07/30 10:54:48;;;;;;;;;;;23.90;90.70;;;;;;5094637;28;19904;-82
2021/07/30 10:57:33;;;;;;;;;;;25.60;85.50;;;;;;5076302;28;19950;-82
2021/07/30 11:00:04;;;;;;;;;;;26.70;75.70;;;;;;5076050;28;19935;-82
2021/07/30 11:02:50;;;;;;;;;;;26.80;71.70;;;;;;5094611;28;20363;-81
2021/07/30 11:05:15;;;;;;;;;;;24.40;77.60;;;;;;5094350;28;20390;-82
2021/07/30 11:07:41;;;;;;;;;;;25.70;73.00;;;;;;5094348;28;19904;-83
2021/07/30 11:10:15;;;;;;;;;;;27.50;67.90;;;;;;5076075;28;19910;-82
2021/07/30 11:12:41;;;;;;;;;;;26.10;69.00;;;;;;5094243;28;19908;-83
2021/07/30 11:15:07;;;;;;;;;;;26.90;67.70;;;;;;5093997;28;19969;-82
2021/07/30 11:17:34;;;;;;;;;;;27.00;63.90;;;;;;5094171;28;19957;-83
2021/07/30 11:20:01;;;;;;;;;;;26.10;65.10;;;;;;5094103;28;19946;-83
2021/07/30 11:22:27;;;;;;;;;;;26.50;66.80;;;;;;5093182;28;19942;-82
2021/07/30 11:24:52;;;;;;;;;;;25.70;65.60;;;;;;5094101;28;19904;-82
2021/07/30 11:27:21;;;;;;;;;;;26.00;68.30;;;;;;5094058;28;19908;-83
2021/07/30 11:29:48;;;;;;;;;;;25.80;66.50;;;;;;5093960;28;20268;-82
2021/07/30 11:32:15;;;;;;;;;;;25.90;66.40;;;;;;5093881;28;19953;-83
2021/07/30 11:34:46;;;;;;;;;;;26.60;66.50;;;;;;5093881;28;19931;-82
2021/07/30 11:37:13;;;;;;;;;;;27.10;66.50;;;;;;5093957;28;19904;-83
2021/07/30 11:39:44;;;;;;;;;;;27.30;65.40;;;;;;5075629;28;19911;-82
2021/07/30 11:42:11;;;;;;;;;;;27.50;64.40;;;;;;5075343;28;19925;-82
2021/07/30 11:44:47;;;;;;;;;;;27.10;65.60;;;;;;5093887;28;19904;-82
2021/07/30 11:47:13;;;;;;;;;;;26.60;67.40;;;;;;5093725;28;19911;-82
2021/07/30 11:49:39;;;;;;;;;;;26.30;69.10;;;;;;5093932;28;19969;-81
2021/07/30 11:52:06;;;;;;;;;;;27.30;68.30;;;;;;5093586;28;19957;-82
2021/07/30 11:54:32;;;;;;;;;;;26.70;67.40;;;;;;5093670;28;19958;-82
2021/07/30 11:56:58;;;;;;;;;;;26.50;65.40;;;;;;5093754;28;19908;-82
2021/07/30 11:59:24;;;;;;;;;;;25.70;67.60;;;;;;5093659;28;19911;-82
2021/07/30 12:01:59;;;;;;;;;;;25.60;68.30;;;;;;5093583;28;20347;-82
2021/07/30 12:04:25;;;;;;;;;;;25.20;72.50;;;;;;5093779;28;19908;-83
2021/07/30 12:06:52;;;;;;;;;;;26.60;71.10;;;;;;5093735;28;20314;-82
2021/07/30 12:09:18;;;;;;;;;;;26.70;71.00;;;;;;5093609;28;19953;-81
2021/07/30 12:12:04;;;;;;;;;;;24.50;70.80;;;;;;5093414;28;19908;-81
2021/07/30 12:14:31;;;;;;;;;;;23.50;79.30;;;;;;5092887;28;19904;-81
2021/07/30 12:16:57;;;;;;;;;;;22.60;82.40;;;;;;5093660;28;19993;-81
2021/07/30 12:19:30;;;;;;;;;;;22.40;84.20;;;;;;5093395;28;19904;-81
2021/07/30 12:21:59;;;;;;;;;;;22.80;85.40;;;;;;5093556;28;19911;-81
2021/07/30 12:24:24;;;;;;;;;;;25.10;79.70;;;;;;5093292;28;19911;-82
2021/07/30 12:26:50;;;;;;;;;;;26.80;67.20;;;;;;5093453;28;19904;-82
2021/07/30 12:29:35;;;;;;;;;;;26.90;69.20;;;;;;5075226;28;19904;-82
2021/07/30 12:32:11;;;;;;;;;;;26.30;69.60;;;;;;5093647;28;19957;-81
2021/07/30 12:34:37;;;;;;;;;;;23.70;78.50;;;;;;5095762;28;19991;-81
2021/07/30 12:37:09;;;;;;;;;;;23.00;84.20;;;;;;5097216;28;19947;-81
2021/07/30 12:39:46;;;;;;;;;;;22.40;85.90;;;;;;5097122;28;20372;-81
2021/07/30 12:42:19;;;;;;;;;;;22.40;87.90;;;;;;5097082;28;19904;-81
2021/07/30 12:45:04;;;;;;;;;;;23.60;85.40;;;;;;5097401;28;19904;-81
2021/07/30 12:47:29;;;;;;;;;;;25.10;81.00;;;;;;5078804;28;19940;-82
2021/07/30 12:49:55;;;;;;;;;;;27.70;71.70;;;;;;5078729;28;19904;-82
2021/07/30 12:52:21;;;;;;;;;;;29.00;63.30;;;;;;5096725;28;20002;-82
2021/07/30 12:54:47;;;;;;;;;;;25.10;70.30;;;;;;5078608;28;19904;-82
2021/07/30 12:57:15;;;;;;;;;;;23.60;79.40;;;;;;5096776;28;19904;-81
2021/07/30 12:59:56;;;;;;;;;;;23.50;81.90;;;;;;5096838;28;19947;-81
2021/07/30 13:02:21;;;;;;;;;;;23.70;79.90;;;;;;5096651;28;19966;-83
2021/07/30 13:04:48;;;;;;;;;;;24.20;76.00;;;;;;5096608;28;19980;-81
2021/07/30 13:07:13;;;;;;;;;;;25.10;71.90;;;;;;5096835;28;19904;-82
2021/07/30 13:09:39;;;;;;;;;;;25.70;70.00;;;;;;5096537;28;19980;-82
2021/07/30 13:12:05;;;;;;;;;;;25.90;67.50;;;;;;5096448;28;19908;-82
2021/07/30 13:14:31;;;;;;;;;;;28.50;64.80;;;;;;5078047;28;19999;-83
2021/07/30 13:16:57;;;;;;;;;;;29.70;59.30;;;;;;5096500;28;19998;-82
2021/07/30 13:19:22;;;;;;;;;;;27.20;60.40;;;;;;5078170;28;19918;-82
2021/07/30 13:21:48;;;;;;;;;;;25.70;64.70;;;;;;5096665;28;20279;-82
2021/07/30 13:24:14;;;;;;;;;;;24.90;68.70;;;;;;5096281;28;19994;-82
2021/07/30 13:26:39;;;;;;;;;;;25.90;67.90;;;;;;5096129;28;19903;-82
2021/07/30 13:29:05;;;;;;;;;;;26.40;69.20;;;;;;5096073;28;19996;-81
2021/07/30 13:31:30;;;;;;;;;;;26.80;67.90;;;;;;5096287;28;19908;-82
2021/07/30 13:33:56;;;;;;;;;;;27.10;60.90;;;;;;5096162;28;19908;-82
2021/07/30 13:36:22;;;;;;;;;;;26.60;60.50;;;;;;5096309;28;20336;-82
2021/07/30 13:38:47;;;;;;;;;;;27.40;59.30;;;;;;5095930;28;19998;-82
2021/07/30 13:41:13;;;;;;;;;;;26.40;60.20;;;;;;5095795;28;20368;-82
2021/07/30 13:43:39;;;;;;;;;;;25.50;61.10;;;;;;5095730;28;19904;-82
2021/07/30 13:46:05;;;;;;;;;;;27.10;57.90;;;;;;5094838;28;19904;-82
2021/07/30 13:48:32;;;;;;;;;;;28.10;55.40;;;;;;5095933;28;20260;-82
2021/07/30 13:51:04;;;;;;;;;;;27.70;55.10;;;;;;5095892;28;19904;-81
2021/07/30 13:53:29;;;;;;;;;;;27.40;54.20;;;;;;5095738;28;19914;-82
2021/07/30 13:55:55;;;;;;;;;;;26.40;57.80;;;;;;5095614;28;19904;-81
2021/07/30 13:58:21;;;;;;;;;;;25.40;58.40;;;;;;5095560;28;19911;-82
2021/07/30 14:00:47;;;;;;;;;;;25.90;60.40;;;;;;5095512;28;20287;-82
2021/07/30 14:03:13;;;;;;;;;;;26.50;60.90;;;;;;5095549;28;19932;-81
2021/07/30 14:05:42;;;;;;;;;;;27.40;60.10;;;;;;5095383;28;19907;-82
2021/07/30 14:08:08;;;;;;;;;;;27.70;60.00;;;;;;5095358;28;19954;-82
2021/07/30 14:10:33;;;;;;;;;;;27.30;58.00;;;;;;5095735;28;19904;-81
2021/07/30 14:12:59;;;;;;;;;;;27.10;60.00;;;;;;5095772;28;20002;-82
2021/07/30 14:15:25;;;;;;;;;;;27.50;59.40;;;;;;5076905;28;19920;-81
2021/07/30 14:17:51;;;;;;;;;;;26.70;57.00;;;;;;5077026;28;20026;-81